< Cyclone 202117 2021 Season
Cyclone 202121 (noname)
General InformationDetailed Track InformationTrack Information on Google Maps || ResourceGoogle EarthGE AnimationAtom FeedGeoJSON
Year Month Day Hour Lat. Long. Wind (kt) Gust (kt) Direc. of Major Storm Axis Radius of Major Storm Axis (nm) Radius of Minor Storm Axis (nm) Direc. of Major Gale Axis Radius of Major Gale Axis (nm) Radius of Minor Gale Axis (nm) Image
2021 3 20 00 -12.0 97.2 15 45 symmetric - - symmetric - - Image
2021 3 20 06 -12.1 96.7 15 45 symmetric - - symmetric - - Image
2021 3 20 12 -12.0 96.2 15 45 symmetric - - symmetric - - Image
2021 3 20 18 -11.5 95.8 20 45 symmetric - - symmetric - - Image
2021 3 21 00 -11.6 95.4 20 45 symmetric - - symmetric - - Image
2021 3 21 06 -12.0 95.0 20 45 symmetric - - symmetric - - Image
2021 3 21 12 -12.0 94.3 20 45 symmetric - - symmetric - - Image
2021 3 21 18 -12.0 93.6 20 45 symmetric - - symmetric - - Image
2021 3 22 00 -12.0 93.3 30 45 symmetric - - symmetric - - Image
2021 3 22 06 -12.1 93.2 30 45 symmetric - - symmetric - - Image
2021 3 22 12 -12.2 92.8 30 45 symmetric - - symmetric - - Image
2021 3 22 18 -12.7 92.2 30 45 symmetric - - symmetric - - Image
2021 3 23 00 -12.4 92.0 35 50 symmetric - - symmetric - - Image
2021 3 23 06 -12.4 92.0 35 50 symmetric - - symmetric - - Image
2021 3 23 12 -12.3 91.8 35 50 symmetric - - symmetric - - Image
2021 3 23 18 -12.1 91.8 30 45 symmetric - - symmetric - - Image
2021 3 24 00 -11.8 91.5 30 45 symmetric - - symmetric - - Image
2021 3 24 06 -11.8 91.5 30 45 symmetric - - symmetric - - Image
2021 3 24 12 -11.8 91.8 30 45 symmetric - - symmetric - - Image
2021 3 24 18 -11.5 92.0 30 45 symmetric - - symmetric - - Image
2021 3 25 00 -11.2 91.9 25 45 symmetric - - symmetric - - Image
2021 3 25 06 -11.7 91.5 25 45 symmetric - - symmetric - - Image
2021 3 25 12 -11.5 92.1 20 45 symmetric - - symmetric - - Image
2021 3 25 18 -11.2 91.6 20 45 symmetric - - symmetric - - Image
2021 3 26 00 -10.8 91.1 20 45 symmetric - - symmetric - - Image
2021 3 26 06 -10.4 90.9 20 45 symmetric - - symmetric - - Image
2021 3 26 12 -10.4 90.6 20 45 symmetric - - symmetric - - Image
2021 3 26 18 -10.1 90.0 20 45 symmetric - - symmetric - - Image
< Cyclone 202117 2021 Season

Help